Time;durP1;ratioP1;P1;durP2;ratioP2;P2;SDS_P1;SDS_P2;PMS_P1;PMS_P2;Temp;Humidity;BMP_temperature;BMP_pressure;BME280_temperature;BME280_humidity;BME280_pressure;Samples;Min_cycle;Max_cycle;Signal;HPM_P1;HPM_P2
2023/03/20 00:00:37;;;;;;;14.00;4.20;;;;;;;;;;5009734;28;20056;-69
2023/03/20 00:03:03;;;;;;;12.30;4.60;;;7.20;99.90;;;;;;5008344;28;20063;-69
2023/03/20 00:05:30;;;;;;;10.63;4.20;;;;;;;;;;5027645;28;20503;-69
2023/03/20 00:07:57;;;;;;;10.75;5.35;;;;;;;;;;5027200;28;20041;-69
2023/03/20 00:10:30;;;;;;;10.65;5.38;;;;;;;;;;5005040;28;20053;-69
2023/03/20 00:12:56;;;;;;;11.50;5.60;;;7.20;99.90;;;;;;5017935;28;20042;-69
2023/03/20 00:15:27;;;;;;;13.27;5.38;;;;;;;;;;5013492;28;20132;-69
2023/03/20 00:17:54;;;;;;;10.85;5.22;;;;;;;;;;5009296;28;20069;-69
2023/03/20 00:20:20;;;;;;;12.40;5.43;;;;;;;;;;5024713;28;20046;-69
2023/03/20 00:22:46;;;;;;;11.95;5.72;;;;;;;;;;4997052;28;20503;-69
2023/03/20 00:25:16;;;;;;;11.63;5.03;;;;;;;;;;5001453;28;20059;-69
2023/03/20 00:27:43;;;;;;;11.32;5.45;;;;;;;;;;5007829;28;20045;-68
2023/03/20 00:30:21;;;;;;;15.80;5.78;;;;;;;;;;5019623;28;20096;-69
2023/03/20 00:32:48;;;;;;;10.85;5.78;;;7.20;1.00;;;;;;5005966;28;20041;-69
2023/03/20 00:35:26;;;;;;;11.55;5.57;;;7.10;1.00;;;;;;5002121;28;20121;-69
2023/03/20 00:37:53;;;;;;;14.57;6.00;;;;;;;;;;4994877;28;20073;-69
2023/03/20 00:40:19;;;;;;;11.73;5.40;;;;;;;;;;5010793;28;20517;-69
2023/03/20 00:42:47;;;;;;;12.30;5.90;;;;;;;;;;5017510;28;20400;-68
2023/03/20 00:45:17;;;;;;;13.35;5.45;;;6.90;1.00;;;;;;5021205;28;20440;-69
2023/03/20 00:47:44;;;;;;;13.80;5.72;;;7.40;1.00;;;;;;5006255;28;20034;-69
2023/03/20 00:50:22;;;;;;;17.58;5.65;;;;;;;;;;5007796;28;20120;-69
2023/03/20 00:52:48;;;;;;;10.68;5.68;;;;;;;;;;5011992;28;20056;-69
2023/03/20 00:55:14;;;;;;;11.88;5.75;;;7.40;1.00;;;;;;5005433;28;20037;-69
2023/03/20 00:57:56;;;;;;;12.30;5.50;;;7.00;1.00;;;;;;5009471;28;20037;-68
2023/03/20 01:00:48;;;;;;;13.10;6.03;;;;;;;;;;5022696;28;20038;-69
2023/03/20 01:03:20;;;;;;;13.93;5.32;;;8.00;1.00;;;;;;5018502;28;20049;-69
2023/03/20 01:05:46;;;;;;;10.77;5.00;;;;;;;;;;5014769;28;20587;-69
2023/03/20 01:08:18;;;;;;;11.00;4.95;;;7.30;10.40;;;;;;5022112;28;20048;-69
2023/03/20 01:10:45;;;;;;;12.10;6.45;;;7.50;1.00;;;;;;5016703;28;20041;-69
2023/03/20 01:13:28;;;;;;;13.60;5.68;;;8.30;1.00;;;;;;5009581;28;20124;-69
2023/03/20 01:15:56;;;;;;;16.08;5.95;;;;;;;;;;5010627;28;20124;-69
2023/03/20 01:18:23;;;;;;;14.68;5.80;;;7.30;1.00;;;;;;5006611;28;20047;-69
2023/03/20 01:20:51;;;;;;;14.88;5.60;;;;;;;;;;4989024;28;20069;-69
2023/03/20 01:23:18;;;;;;;11.82;5.65;;;7.60;43.70;;;;;;5004226;28;20470;-69
2023/03/20 01:25:44;;;;;;;13.77;5.85;;;7.60;37.40;;;;;;4996022;28;20044;-69
2023/03/20 01:28:13;;;;;;;13.48;6.13;;;;;;;;;;4994924;28;20391;-69
2023/03/20 01:30:39;;;;;;;15.50;5.82;;;;;;;;;;4999333;28;20056;-69
2023/03/20 01:33:28;;;;;;;18.05;5.57;;;;;;;;;;5024716;28;20046;-69
2023/03/20 01:35:56;;;;;;;12.68;6.13;;;;;;;;;;5007902;28;20037;-69
2023/03/20 01:38:24;;;;;;;16.13;6.55;;;;;;;;;;5002974;28;20049;-70
2023/03/20 01:41:15;;;;;;;13.20;5.50;;;8.30;2.10;;;;;;5017428;28;20045;-68
2023/03/20 01:43:42;;;;;;;16.10;6.47;;;;;;;;;;4994861;28;20050;-69
2023/03/20 01:46:11;;;;;;;15.63;6.20;;;;;;;;;;5012307;28;20076;-69
2023/03/20 01:48:49;;;;;;;15.18;6.45;;;8.30;15.50;;;;;;5005462;28;20524;-69
2023/03/20 01:51:20;;;;;;;19.00;7.70;;;;;;;;;;5008121;28;20507;-69
2023/03/20 01:53:47;;;;;;;17.58;7.20;;;;;;;;;;4991043;28;20048;-69
2023/03/20 01:56:14;;;;;;;13.00;5.75;;;7.80;43.50;;;;;;5022633;28;20155;-69
2023/03/20 01:58:43;;;;;;;13.68;5.80;;;;;;;;;;5026032;28;20113;-69
2023/03/20 02:01:11;;;;;;;13.30;5.32;;;;;;;;;;5003245;28;20056;-69
2023/03/20 02:03:37;;;;;;;14.02;6.03;;;;;;;;;;5002708;28;20033;-69
2023/03/20 02:06:03;;;;;;;19.60;5.88;;;;;;;;;;5022177;28;20865;-69
2023/03/20 02:08:31;;;;;;;15.55;6.75;;;;;;;;;;5000535;28;20243;-69
2023/03/20 02:10:59;;;;;;;17.77;7.35;;;7.60;1.00;;;;;;5010838;28;20053;-69
2023/03/20 02:13:27;;;;;;;14.18;6.28;;;;;;;;;;5021558;28;20041;-69
2023/03/20 02:16:02;;;;;;;15.18;5.80;;;;;;;;;;5012593;28;20046;-69
2023/03/20 02:18:28;;;;;;;18.88;6.68;;;;;;;;;;5026085;28;20583;-69
2023/03/20 02:21:00;;;;;;;17.92;8.07;;;;;;;;;;5028146;28;20582;-69
2023/03/20 02:23:35;;;;;;;20.23;8.73;;;;;;;;;;5022582;28;20103;-69
2023/03/20 02:26:07;;;;;;;15.68;7.43;;;7.90;1.00;;;;;;5006475;28;20040;-69
2023/03/20 02:29:01;;;;;;;15.85;6.97;;;;;;;;;;5028879;28;20407;-69
2023/03/20 02:31:46;;;;;;;16.15;6.55;;;;;;;;;;5004241;28;20048;-69
2023/03/20 02:34:30;;;;;;;19.30;6.85;;;;;;;;;;5009413;28;20438;-69
2023/03/20 02:37:30;;;;;;;23.40;7.72;;;7.70;1.00;;;;;;4990754;28;20049;-69
2023/03/20 02:40:08;;;;;;;15.98;7.28;;;8.40;1.00;;;;;;5010932;28;20096;-69
2023/03/20 02:42:47;;;;;;;19.25;7.50;;;;;;;;;;5015062;28;20140;-69
2023/03/20 02:45:28;;;;;;;12.63;5.50;;;8.10;1.00;;;;;;5013905;28;20476;-69
2023/03/20 02:48:07;;;;;;;14.05;7.47;;;;;;;;;;5001997;28;20038;-69
2023/03/20 02:50:46;;;;;;;16.98;6.47;;;8.00;99.90;;;;;;5006125;28;20059;-69
2023/03/20 02:53:31;;;;;;;13.63;7.38;;;8.40;99.90;;;;;;5031856;28;20033;-69
2023/03/20 02:56:13;;;;;;;;;;;7.60;99.90;;;;;;5002125;28;20317;-69
2023/03/20 02:58:49;;;;;;;14.90;6.20;;;7.50;99.90;;;;;;5005310;28;19917;-69
2023/03/20 03:01:18;;;;;;;11.88;5.15;;;;;;;;;;5013364;28;20092;-69
2023/03/20 03:03:56;;;;;;;11.13;5.32;;;;;;;;;;5014143;28;20047;-69
2023/03/20 03:06:26;;;;;;;12.65;5.82;;;8.10;99.90;;;;;;4998174;28;20121;-69
2023/03/20 03:09:01;;;;;;;15.73;6.30;;;;;;;;;;5026404;28;20060;-69
2023/03/20 03:11:27;;;;;;;15.95;5.10;;;;;;;;;;5028261;28;20120;-69
2023/03/20 03:13:55;;;;;;;12.70;5.68;;;;;;;;;;5005741;28;20041;-69
2023/03/20 03:16:24;;;;;;;10.35;4.20;;;;;;;;;;5014705;28;20095;-69
2023/03/20 03:19:02;;;;;;;13.73;6.10;;;8.30;1.00;;;;;;5010397;28;20394;-68
2023/03/20 03:21:29;;;;;;;12.55;4.25;;;;;;;;;;4994934;28;20053;-69
2023/03/20 03:23:55;;;;;;;14.80;5.80;;;8.20;99.90;;;;;;5014359;28;20548;-68
2023/03/20 03:26:24;;;;;;;11.75;5.15;;;;;;;;;;5024751;28;20496;-68
2023/03/20 03:28:56;;;;;;;13.25;5.72;;;8.30;99.90;;;;;;5014459;28;20033;-68
2023/03/20 03:31:23;;;;;;;11.10;5.75;;;;;;;;;;5026446;28;20054;-69
2023/03/20 03:33:50;;;;;;;15.13;6.00;;;;;;;;;;5007627;28;20145;-68
2023/03/20 03:36:21;;;;;;;14.18;5.57;;;;;;;;;;4999119;28;20053;-69
2023/03/20 03:39:14;;;;;;;16.55;5.97;;;8.20;99.90;;;;;;5013862;28;20041;-68
2023/03/20 03:42:10;;;;;;;13.30;6.72;;;;;;;;;;4987377;28;20403;-69
2023/03/20 03:44:47;;;;;;;17.17;6.75;;;8.30;99.90;;;;;;4943944;28;20047;-68
2023/03/20 03:47:30;;;;;;;12.43;5.70;;;8.70;99.90;;;;;;5031162;28;20052;-68
2023/03/20 03:50:01;;;;;;;13.88;6.38;;;8.50;99.90;;;;;;5009771;28;20037;-68
2023/03/20 03:52:28;;;;;;;13.88;6.10;;;;;;;;;;5023122;28;20037;-68
2023/03/20 03:55:00;;;;;;;15.65;6.20;;;;;;;;;;5010562;28;20116;-69
2023/03/20 03:57:33;;;;;;;13.00;6.10;;;;;;;;;;5007263;28;20072;-68
2023/03/20 04:00:04;;;;;;;14.98;6.53;;;;;;;;;;5027035;28;20041;-68
2023/03/20 04:02:31;;;;;;;14.13;6.88;;;;;;;;;;5031349;28;20041;-69
2023/03/20 04:04:57;;;;;;;20.00;8.50;;;;;;;;;;5001747;28;20030;-69
2023/03/20 04:07:27;;;;;;;17.15;8.60;;;7.70;99.90;;;;;;5003217;28;20033;-69
2023/03/20 04:09:52;;;;;;;16.75;7.28;;;8.20;99.90;;;;;;5011453;28;20038;-68
2023/03/20 04:12:33;;;;;;;17.15;9.15;;;;;;;;;;5029680;28;20092;-68
2023/03/20 04:14:59;;;;;;;18.55;9.02;;;;;;;;;;5007386;28;20061;-68
2023/03/20 04:17:25;;;;;;;18.30;7.47;;;;;;;;;;5011137;28;20064;-68
2023/03/20 04:19:51;;;;;;;21.13;9.52;;;;;;;;;;5001623;28;20034;-68
2023/03/20 04:22:17;;;;;;;24.10;10.05;;;;;;;;;;5029277;28;20128;-68
2023/03/20 04:24:44;;;;;;;16.80;9.65;;;8.60;99.90;;;;;;5008879;28;20037;-68
2023/03/20 04:27:10;;;;;;;15.52;9.50;;;8.10;99.90;;;;;;5004115;28;20396;-69
2023/03/20 04:29:36;;;;;;;16.83;9.57;;;;;;;;;;5023356;28;20510;-68
2023/03/20 04:32:02;;;;;;;17.35;9.63;;;;;;;;;;5027145;28;20033;-68
2023/03/20 04:34:28;;;;;;;17.95;10.80;;;;;;;;;;5008070;28;20038;-68
2023/03/20 04:36:55;;;;;;;20.52;11.23;;;;;;;;;;5007232;28;20033;-68
2023/03/20 04:39:21;;;;;;;16.20;8.70;;;8.10;99.90;;;;;;4992855;28;21509;-68
2023/03/20 04:41:47;;;;;;;17.83;8.63;;;;;;;;;;5004282;28;20117;-68
2023/03/20 04:44:13;;;;;;;20.10;10.52;;;;;;;;;;5009538;28;20041;-68
2023/03/20 04:46:39;;;;;;;17.95;8.95;;;;;;;;;;5030454;28;20088;-68
2023/03/20 04:49:05;;;;;;;17.77;9.90;;;;;;;;;;5010514;28;20418;-69
2023/03/20 04:51:31;;;;;;;18.75;9.45;;;;;;;;;;5030157;28;20372;-69
2023/03/20 04:53:57;;;;;;;23.23;9.48;;;;;;;;;;4990776;28;20044;-69
2023/03/20 04:56:23;;;;;;;19.05;9.32;;;;;;;;;;5029251;28;20034;-69
2023/03/20 04:58:49;;;;;;;17.77;10.23;;;;;;;;;;5011041;28;20033;-69
2023/03/20 05:01:15;;;;;;;22.42;9.60;;;;;;;;;;4987902;28;20487;-69
2023/03/20 05:03:42;;;;;;;21.75;9.68;;;;;;;;;;5004322;28;20068;-69
2023/03/20 05:06:08;;;;;;;18.77;9.27;;;8.00;99.90;;;;;;4991397;28;20407;-69
2023/03/20 05:08:34;;;;;;;21.27;10.20;;;;;;;;;;5016849;28;20041;-69
2023/03/20 05:11:00;;;;;;;19.17;9.82;;;;;;;;;;5030239;28;20033;-68
2023/03/20 05:13:26;;;;;;;20.35;8.85;;;;;;;;;;5004845;28;20088;-68
2023/03/20 05:15:53;;;;;;;18.33;9.63;;;;;;;;;;5009785;28;20477;-68
2023/03/20 05:18:19;;;;;;;19.75;9.98;;;;;;;;;;5012090;28;20041;-69
2023/03/20 05:20:45;;;;;;;22.70;9.80;;;;;;;;;;5024775;28;20092;-69
2023/03/20 05:23:11;;;;;;;23.27;9.27;;;;;;;;;;5012516;28;20044;-68
2023/03/20 05:25:37;;;;;;;22.30;11.20;;;7.90;99.90;;;;;;5020153;28;20045;-71
2023/03/20 05:28:03;;;;;;;20.08;11.13;;;;;;;;;;5006092;28;20044;-69
2023/03/20 05:30:29;;;;;;;19.45;10.18;;;;;;;;;;4990520;28;20041;-69
2023/03/20 05:32:55;;;;;;;21.77;12.45;;;;;;;;;;5000825;28;20034;-69
2023/03/20 05:35:21;;;;;;;20.13;12.52;;;;;;;;;;5009575;28;20044;-69
2023/03/20 05:37:47;;;;;;;22.58;12.52;;;;;;;;;;5002743;28;20041;-69
2023/03/20 05:40:15;;;;;;;24.63;12.63;;;;;;;;;;5007988;28;20037;-70
2023/03/20 05:42:41;;;;;;;24.88;14.07;;;;;;;;;;5008212;28;20037;-69
2023/03/20 05:45:10;;;;;;;26.95;12.60;;;;;;;;;;5027463;28;20068;-69
2023/03/20 05:47:36;;;;;;;24.33;13.43;;;;;;;;;;5003133;28;20061;-69
2023/03/20 05:50:03;;;;;;;28.88;14.45;;;;;;;;;;5020048;28;20086;-69
2023/03/20 05:52:29;;;;;;;27.65;12.95;;;;;;;;;;4994809;28;20180;-69
2023/03/20 05:54:55;;;;;;;26.27;14.73;;;;;;;;;;5011595;28;20518;-69
2023/03/20 05:57:21;;;;;;;28.77;15.13;;;;;;;;;;4994373;28;20087;-69
2023/03/20 05:59:47;;;;;;;25.63;13.27;;;;;;;;;;5003471;28;20046;-69
2023/03/20 06:02:13;;;;;;;27.00;13.32;;;;;;;;;;4996394;28;20045;-69
2023/03/20 06:04:39;;;;;;;24.42;14.02;;;;;;;;;;5011313;28;20037;-69
2023/03/20 06:07:06;;;;;;;21.95;13.60;;;;;;;;;;4983982;28;20038;-69
2023/03/20 06:09:32;;;;;;;24.50;14.18;;;;;;;;;;5001537;28;20077;-69
2023/03/20 06:11:58;;;;;;;25.48;14.52;;;7.90;99.90;;;;;;5017150;28;20050;-69
2023/03/20 06:14:24;;;;;;;25.98;14.88;;;;;;;;;;4976625;28;20041;-69
2023/03/20 06:16:52;;;;;;;26.58;13.27;;;;;;;;;;5022499;28;20040;-69
2023/03/20 06:19:19;;;;;;;26.00;13.77;;;;;;;;;;5016842;28;20120;-69
2023/03/20 06:21:45;;;;;;;23.80;12.32;;;;;;;;;;5024492;28;20464;-69
2023/03/20 06:24:11;;;;;;;25.83;12.98;;;;;;;;;;5010164;28;20037;-69
2023/03/20 06:26:37;;;;;;;23.58;13.35;;;;;;;;;;5027091;28;20043;-69
2023/03/20 06:29:03;;;;;;;26.17;12.63;;;;;;;;;;5068927;22;20041;-62
2023/03/20 06:31:29;;;;;;;23.90;12.90;;;;;;;;;;5066131;28;20048;-63
2023/03/20 06:33:55;;;;;;;24.90;12.75;;;;;;;;;;5039336;28;20067;-63
2023/03/20 06:36:21;;;;;;;33.75;17.02;;;;;;;;;;5031782;28;20041;-62
2023/03/20 06:38:47;;;;;;;24.33;13.32;;;;;;;;;;5044372;28;20037;-62
2023/03/20 06:41:13;;;;;;;23.55;13.57;;;;;;;;;;5036455;28;20102;-62
2023/03/20 06:43:41;;;;;;;21.73;11.15;;;;;;;;;;5045316;28;20034;-62
2023/03/20 06:46:08;;;;;;;21.73;11.38;;;;;;;;;;5039520;28;20254;-62
2023/03/20 06:48:34;;;;;;;23.25;13.32;;;;;;;;;;5036197;28;20542;-61
2023/03/20 06:51:00;;;;;;;23.35;11.38;;;;;;;;;;5055280;28;20040;-61
2023/03/20 06:53:26;;;;;;;21.42;12.38;;;;;;;;;;5052606;28;20048;-61
2023/03/20 06:55:53;;;;;;;18.13;10.02;;;;;;;;;;5023188;28;20433;-61
2023/03/20 06:58:19;;;;;;;19.30;10.43;;;8.20;99.90;;;;;;5047200;28;20486;-61
2023/03/20 07:00:45;;;;;;;19.83;11.75;;;8.10;99.90;;;;;;5045580;28;20059;-61
2023/03/20 07:03:11;;;;;;;22.67;12.90;;;8.10;99.90;;;;;;5022325;28;20046;-61
2023/03/20 07:05:37;;;;;;;22.77;11.07;;;;;;;;;;5037780;28;20099;-61
2023/03/20 07:08:04;;;;;;;26.52;12.25;;;8.20;99.90;;;;;;5040855;28;20045;-61
2023/03/20 07:10:30;;;;;;;20.73;12.27;;;;;;;;;;5039854;28;20516;-61
2023/03/20 07:12:56;;;;;;;20.17;10.73;;;8.30;99.90;;;;;;5017756;28;20044;-61
2023/03/20 07:15:22;;;;;;;19.92;10.68;;;8.10;99.90;;;;;;5030171;28;20044;-61
2023/03/20 07:17:48;;;;;;;22.33;11.85;;;;;;;;;;5033852;28;20036;-61
2023/03/20 07:20:14;;;;;;;21.38;12.90;;;;;;;;;;5037802;28;20038;-61
2023/03/20 07:22:40;;;;;;;21.50;11.55;;;;;;;;;;5048532;28;20037;-61
2023/03/20 07:25:08;;;;;;;18.33;12.13;;;;;;;;;;5024015;28;20046;-61
2023/03/20 07:27:34;;;;;;;23.15;11.70;;;;;;;;;;5048359;28;20029;-61
2023/03/20 07:30:00;;;;;;;21.75;11.65;;;;;;;;;;5033951;28;20048;-61
2023/03/20 07:32:26;;;;;;;19.25;11.38;;;;;;;;;;5058871;28;20048;-61
2023/03/20 07:34:52;;;;;;;20.88;12.23;;;;;;;;;;5043155;28;20037;-61
2023/03/20 07:37:19;;;;;;;23.77;12.27;;;;;;;;;;5045350;28;20118;-61
2023/03/20 07:39:45;;;;;;;25.88;12.73;;;;;;;;;;5024348;28;20108;-61
2023/03/20 07:42:12;;;;;;;21.65;11.98;;;;;;;;;;5040383;28;20486;-61
2023/03/20 07:44:38;;;;;;;26.00;11.45;;;;;;;;;;5051901;28;20037;-61
2023/03/20 07:47:05;;;;;;;20.90;11.10;;;8.60;99.90;;;;;;5033836;28;20486;-61
2023/03/20 07:49:31;;;;;;;26.10;11.23;;;;;;;;;;5015298;28;20046;-61
2023/03/20 07:51:57;;;;;;;18.88;10.73;;;;;;;;;;5041777;28;20114;-61
2023/03/20 07:54:23;;;;;;;19.90;11.98;;;8.70;99.90;;;;;;5043401;28;20486;-61
2023/03/20 07:56:49;;;;;;;22.17;12.50;;;8.70;99.90;;;;;;5040209;28;20034;-61
2023/03/20 07:59:15;;;;;;;20.50;10.82;;;8.90;93.50;;;;;;5025024;28;20037;-61
2023/03/20 08:01:41;;;;;;;18.70;9.98;;;;;;;;;;5055788;28;20037;-61
2023/03/20 08:04:07;;;;;;;22.17;10.35;;;8.90;41.70;;;;;;5043292;28;20410;-61
2023/03/20 08:06:33;;;;;;;18.20;10.75;;;;;;;;;;5039248;28;20048;-61
2023/03/20 08:08:59;;;;;;;16.17;10.13;;;8.90;15.80;;;;;;5049739;28;20509;-61
2023/03/20 08:11:25;;;;;;;19.98;11.20;;;;;;;;;;5044485;28;20041;-61
2023/03/20 08:13:51;;;;;;;17.60;9.45;;;;;;;;;;5028618;28;20068;-61
2023/03/20 08:16:17;;;;;;;19.67;9.60;;;;;;;;;;5009002;28;20557;-61
2023/03/20 08:18:43;;;;;;;19.17;9.75;;;;;;;;;;5042505;28;20045;-61
2023/03/20 08:21:09;;;;;;;20.50;12.00;;;;;;;;;;5051300;28;20115;-61
2023/03/20 08:23:35;;;;;;;21.13;9.45;;;;;;;;;;5043607;28;20033;-61
2023/03/20 08:26:01;;;;;;;18.05;10.07;;;;;;;;;;5048019;28;20029;-61
2023/03/20 08:28:27;;;;;;;19.73;10.77;;;;;;;;;;5058626;28;20056;-61
2023/03/20 08:30:53;;;;;;;16.83;9.45;;;9.30;1.00;;;;;;5053788;28;20048;-61
2023/03/20 08:33:18;;;;;;;20.35;11.65;;;9.30;1.00;;;;;;5040911;28;20029;-61
2023/03/20 08:35:54;;;;;;;18.00;8.38;;;;;;;;;;5044877;28;20131;-60
2023/03/20 08:38:20;;;;;;;18.35;9.60;;;;;;;;;;5027027;28;20045;-61
2023/03/20 08:40:46;;;;;;;19.42;10.57;;;;;;;;;;5046786;28;20048;-61
2023/03/20 08:43:12;;;;;;;21.83;10.38;;;;;;;;;;5040792;28;20037;-60
2023/03/20 08:45:38;;;;;;;19.08;9.32;;;;;;;;;;5032498;28;20045;-60
2023/03/20 08:48:04;;;;;;;20.95;8.98;;;9.70;1.00;;;;;;5050368;28;20094;-61
2023/03/20 08:50:30;;;;;;;17.48;9.23;;;9.70;1.00;;;;;;5036388;28;20575;-61
2023/03/20 08:52:56;;;;;;;15.35;9.18;;;9.70;1.00;;;;;;5024988;28;20048;-61
2023/03/20 08:55:22;;;;;;;18.40;10.13;;;;;;;;;;5040753;28;20041;-62
2023/03/20 08:57:48;;;;;;;20.25;10.43;;;9.60;1.00;;;;;;5050390;28;20036;-61
2023/03/20 09:00:14;;;;;;;17.70;9.80;;;;;;;;;;5036494;28;20490;-61
2023/03/20 09:02:41;;;;;;;16.48;9.85;;;;;;;;;;5039049;28;20091;-62
2023/03/20 09:05:07;;;;;;;14.10;8.48;;;;;;;;;;5039570;28;20045;-61
2023/03/20 09:07:33;;;;;;;17.40;9.05;;;9.90;1.00;;;;;;5037214;28;20042;-61
2023/03/20 09:09:59;;;;;;;15.70;9.57;;;;;;;;;;5045684;28;20044;-63
2023/03/20 09:12:25;;;;;;;18.35;8.18;;;;;;;;;;5050903;28;20120;-61
2023/03/20 09:14:51;;;;;;;24.27;9.73;;;9.90;1.00;;;;;;5046840;28;20044;-63
2023/03/20 09:17:17;;;;;;;23.35;11.07;;;;;;;;;;5029524;28;20041;-62
2023/03/20 09:19:43;;;;;;;20.33;9.38;;;;;;;;;;5045012;28;20515;-60
2023/03/20 09:22:13;;;;;;;25.90;10.48;;;;;;;;;;5044813;28;20129;-60
2023/03/20 09:24:38;;;;;;;19.35;10.38;;;10.00;1.00;;;;;;5046372;28;20167;-60
2023/03/20 09:27:04;;;;;;;20.17;8.73;;;10.20;1.00;;;;;;5044887;28;20043;-61
2023/03/20 09:29:30;;;;;;;19.50;10.48;;;10.20;1.00;;;;;;5045067;28;20049;-61
2023/03/20 09:31:56;;;;;;;17.52;7.68;;;;;;;;;;5035577;28;20033;-60
2023/03/20 09:34:23;;;;;;;19.63;9.50;;;;;;;;;;5043651;28;20047;-60
2023/03/20 09:36:48;;;;;;;14.90;8.43;;;10.20;1.00;;;;;;5027699;28;20525;-61
2023/03/20 09:39:14;;;;;;;20.38;8.73;;;;;;;;;;5042913;28;20060;-60
2023/03/20 09:41:46;;;;;;;17.95;8.70;;;;;;;;;;5047203;28;20047;-63
2023/03/20 09:44:34;;;;;;;22.90;10.00;;;10.50;1.00;;;;;;5036770;28;20033;-60
2023/03/20 09:47:15;;;;;;;18.30;9.23;;;10.50;1.00;;;;;;5035098;28;20540;-60
2023/03/20 09:49:41;;;;;;;21.80;9.95;;;;;;;;;;5041242;28;20063;-60
2023/03/20 09:52:19;;;;;;;16.33;8.85;;;9.60;99.90;;;;;;5044234;28;20053;-61
2023/03/20 09:54:51;;;;;;;22.83;9.20;;;9.50;99.90;;;;;;5031282;28;20119;-61
2023/03/20 09:57:27;;;;;;;21.27;8.50;;;10.20;99.90;;;;;;5028655;28;20037;-60
2023/03/20 10:00:06;;;;;;;17.90;8.38;;;;;;;;;;5047083;28;20041;-61
2023/03/20 10:02:32;;;;;;;19.90;8.13;;;;;;;;;;5027686;28;20538;-61
2023/03/20 10:04:58;;;;;;;12.63;7.22;;;;;;;;;;5046034;28;20124;-60
2023/03/20 10:07:25;;;;;;;14.20;6.63;;;10.30;1.00;;;;;;5045295;28;20060;-61
2023/03/20 10:09:51;;;;;;;15.45;6.32;;;10.10;1.00;;;;;;5046646;28;20037;-61
2023/03/20 10:12:35;;;;;;;15.20;6.32;;;;;;;;;;5045188;28;20118;-61
2023/03/20 10:15:20;;;;;;;;;;;9.60;99.90;;;;;;5045240;28;20036;-60
2023/03/20 10:17:52;;;;;;;17.38;7.82;;;;;;;;;;5045809;28;19916;-60
2023/03/20 10:20:39;;;;;;;19.85;7.57;;;9.40;99.90;;;;;;5027703;28;20561;-61
2023/03/20 10:23:06;;;;;;;19.92;8.38;;;9.70;99.90;;;;;;5019329;28;20033;-61
2023/03/20 10:25:59;;;;;;;16.48;7.63;;;;;;;;;;5022768;28;20124;-61
2023/03/20 10:28:34;;;;;;;15.75;7.90;;;;;;;;;;5034181;28;20053;-61
2023/03/20 10:31:11;;;;;;;14.98;6.85;;;;;;;;;;5040097;28;20170;-61
2023/03/20 10:33:46;;;;;;;22.10;8.82;;;9.80;99.90;;;;;;5045844;28;20052;-61
2023/03/20 10:36:32;;;;;;;14.32;6.93;;;;;;;;;;5044572;28;20056;-61
2023/03/20 10:39:17;;;;;;;15.20;7.00;;;;;;;;;;5026520;28;20049;-61
2023/03/20 10:41:43;;;;;;;;;;;;;;;;;;5027917;28;20037;-61
2023/03/20 10:44:26;;;;;;;20.73;7.88;;;9.20;1.00;;;;;;5047151;28;20601;-61
2023/03/20 10:46:54;;;;;;;17.85;6.88;;;;;;;;;;5043634;28;20033;-61
2023/03/20 10:49:25;;;;;;;14.75;5.88;;;9.20;40.30;;;;;;5045786;28;20120;-61
2023/03/20 10:51:52;;;;;;;13.35;6.28;;;;;;;;;;5043735;28;20037;-61
2023/03/20 10:54:26;;;;;;;17.52;6.70;;;9.20;99.90;;;;;;5047742;28;20048;-61
2023/03/20 10:56:55;;;;;;;19.85;7.07;;;;;;;;;;5043497;28;20033;-61
2023/03/20 10:59:26;;;;;;;14.10;6.90;;;9.50;99.90;;;;;;5049324;28;20041;-61
2023/03/20 11:01:52;;;;;;;21.50;7.05;;;9.90;99.90;;;;;;5030410;28;20606;-62
2023/03/20 11:04:18;;;;;;;17.63;7.68;;;9.80;99.90;;;;;;5048873;28;20033;-62
2023/03/20 11:06:53;;;;;;;15.25;7.28;;;;;;;;;;5051680;28;20522;-61
2023/03/20 11:09:22;;;;;;;19.13;6.68;;;9.30;99.90;;;;;;5050962;28;20045;-62
2023/03/20 11:11:48;;;;;;;14.93;8.20;;;;;;;;;;5048495;28;20033;-61
2023/03/20 11:14:19;;;;;;;16.73;7.22;;;;;;;;;;5052708;28;20119;-61
2023/03/20 11:16:53;;;;;;;21.67;9.48;;;9.10;91.00;;;;;;5025614;28;20041;-61
2023/03/20 11:19:21;;;;;;;20.58;10.05;;;9.70;99.90;;;;;;5045965;28;20116;-61
2023/03/20 11:21:49;;;;;;;19.23;10.25;;;;;;;;;;5049648;28;20033;-61
2023/03/20 11:24:35;;;;;;;21.73;12.55;;;;;;;;;;5032024;28;20069;-61
2023/03/20 11:27:24;;;;;;;22.67;11.63;;;;;;;;;;5047153;28;20104;-61
2023/03/20 11:29:51;;;;;;;24.67;12.75;;;9.10;99.90;;;;;;5036302;28;20537;-61
2023/03/20 11:32:49;;;;;;;24.60;14.13;;;8.90;99.90;;;;;;5046785;28;20044;-61
2023/03/20 11:35:27;;;;;;;22.35;11.57;;;;;;;;;;5040156;28;20057;-61
2023/03/20 11:37:55;;;;;;;23.20;12.65;;;;;;;;;;5023117;28;20037;-61
2023/03/20 11:40:24;;;;;;;23.27;14.52;;;8.70;99.90;;;;;;5049796;28;20122;-61
2023/03/20 11:42:57;;;;;;;24.38;11.00;;;;;;;;;;5049682;28;20040;-61
2023/03/20 11:45:24;;;;;;;27.67;13.70;;;;;;;;;;5047463;28;20041;-61
2023/03/20 11:47:52;;;;;;;23.20;12.32;;;;;;;;;;5042239;28;20111;-61
2023/03/20 11:50:37;;;;;;;21.70;12.32;;;;;;;;;;5047692;28;20048;-61
2023/03/20 11:53:14;;;;;;;21.58;12.38;;;;;;;;;;5049850;28;20445;-61
2023/03/20 11:55:40;;;;;;;23.70;11.60;;;;;;;;;;5040014;28;20041;-61
2023/03/20 11:58:14;;;;;;;25.95;14.65;;;;;;;;;;5040033;28;20037;-61
2023/03/20 12:00:41;;;;;;;26.20;16.38;;;8.40;1.00;;;;;;5038396;28;20394;-61
2023/03/20 12:03:26;;;;;;;27.30;16.45;;;;;;;;;;5050287;28;20106;-61
2023/03/20 12:05:59;;;;;;;25.15;15.80;;;;;;;;;;5046609;28;20033;-61
2023/03/20 12:08:26;;;;;;;26.45;17.23;;;;;;;;;;5048089;28;20039;-61
2023/03/20 12:10:55;;;;;;;24.45;15.40;;;;;;;;;;5047502;28;20036;-60
2023/03/20 12:13:25;;;;;;;29.65;17.40;;;;;;;;;;5049233;28;20037;-60
2023/03/20 12:15:55;;;;;;;25.10;16.77;;;;;;;;;;5046363;28;20417;-60
2023/03/20 12:18:27;;;;;;;28.45;17.67;;;;;;;;;;5050686;28;20544;-60
2023/03/20 12:21:05;;;;;;;28.23;18.45;;;;;;;;;;5045773;28;20084;-60
2023/03/20 12:23:52;;;;;;;24.20;15.85;;;8.40;99.90;;;;;;5044915;28;20061;-60
2023/03/20 12:26:22;;;;;;;29.48;18.38;;;;;;;;;;5030128;28;20068;-61
2023/03/20 12:28:48;;;;;;;26.83;17.65;;;;;;;;;;5047100;28;20056;-61
2023/03/20 12:31:29;;;;;;;28.60;16.98;;;8.30;1.00;;;;;;5050332;28;20047;-61
2023/03/20 12:33:58;;;;;;;23.52;16.02;;;;;;;;;;5039859;28;20050;-61
2023/03/20 12:36:37;;;;;;;23.90;16.20;;;7.90;99.90;;;;;;5050713;28;20044;-62
2023/03/20 12:39:05;;;;;;;25.92;16.17;;;;;;;;;;5029680;28;20111;-62
2023/03/20 12:41:46;;;;;;;27.60;16.83;;;;;;;;;;5043483;28;20045;-62
2023/03/20 12:44:15;;;;;;;24.42;14.43;;;;;;;;;;5012584;28;20064;-62
2023/03/20 12:47:06;;;;;;;30.20;16.00;;;7.90;99.90;;;;;;5032655;28;20047;-62
2023/03/20 12:49:52;;;;;;;25.95;15.73;;;9.00;99.90;;;;;;5047250;28;20119;-62
2023/03/20 12:52:27;;;;;;;27.40;16.05;;;;;;;;;;5024866;28;20044;-63
2023/03/20 12:55:00;;;;;;;25.30;17.00;;;;;;;;;;5046748;28;20514;-62
2023/03/20 12:57:26;;;;;;;26.33;15.63;;;;;;;;;;5046552;28;20051;-63
2023/03/20 13:00:11;;;;;;;30.30;16.30;;;9.10;1.00;;;;;;5049301;28;20045;-63
2023/03/20 13:02:56;;;;;;;26.20;16.30;;;;;;;;;;5045876;28;20052;-63
2023/03/20 13:05:22;;;;;;;29.55;17.77;;;;;;;;;;5045485;28;20046;-63
2023/03/20 13:08:03;;;;;;;26.50;17.20;;;;;;;;;;5039078;28;20029;-63
2023/03/20 13:10:34;;;;;;;24.75;15.90;;;;;;;;;;5046213;28;20041;-63
2023/03/20 13:13:23;;;;;;;31.67;15.05;;;8.60;99.90;;;;;;5038411;28;20079;-63
2023/03/20 13:15:57;;;;;;;26.20;15.20;;;9.10;99.90;;;;;;5041636;28;20036;-63
2023/03/20 13:18:50;;;;;;;27.42;16.25;;;8.80;99.90;;;;;;5031714;28;20041;-62
2023/03/20 13:21:26;;;;;;;28.40;16.88;;;8.20;99.90;;;;;;5043647;28;20041;-62
2023/03/20 13:24:18;;;;;;;25.13;14.93;;;8.50;99.90;;;;;;5051893;28;20089;-62
2023/03/20 13:26:52;;;;;;;19.25;12.50;;;;;;;;;;5044308;28;20390;-62
2023/03/20 13:29:38;;;;;;;21.38;12.38;;;;;;;;;;5046961;28;20044;-62
2023/03/20 13:32:29;;;;;;;21.40;13.43;;;8.30;99.90;;;;;;5033308;28;20041;-62
2023/03/20 13:35:02;;;;;;;18.05;11.48;;;;;;;;;;5035426;28;20046;-62
2023/03/20 13:37:34;;;;;;;20.67;11.63;;;;;;;;;;5037873;28;20059;-62
2023/03/20 13:40:00;;;;;;;21.50;13.25;;;;;;;;;;5055435;28;20120;-62
2023/03/20 13:42:30;;;;;;;22.75;13.88;;;;;;;;;;5032350;28;20072;-62
2023/03/20 13:45:05;;;;;;;20.27;12.93;;;8.80;99.90;;;;;;5049805;28;20037;-62
2023/03/20 13:47:32;;;;;;;19.65;12.38;;;;;;;;;;5049450;28;20070;-62
2023/03/20 13:50:01;;;;;;;24.10;14.15;;;;;;;;;;5043315;28;20036;-62
2023/03/20 13:52:38;;;;;;;19.63;11.30;;;8.40;99.90;;;;;;5042235;28;20037;-62
2023/03/20 13:55:14;;;;;;;24.27;14.20;;;;;;;;;;5040039;28;20036;-62
2023/03/20 13:57:43;;;;;;;25.33;14.23;;;;;;;;;;5031082;28;20041;-62
2023/03/20 14:00:17;;;;;;;22.00;14.63;;;;;;;;;;5041188;28;20094;-62
2023/03/20 14:02:43;;;;;;;24.67;13.75;;;;;;;;;;5047792;28;20048;-61
2023/03/20 14:05:21;;;;;;;24.63;13.93;;;8.70;99.90;;;;;;5049284;28;20029;-61
2023/03/20 14:07:49;;;;;;;21.17;13.25;;;8.60;1.00;;;;;;5027328;28;20058;-61
2023/03/20 14:10:21;;;;;;;22.02;13.00;;;;;;;;;;5025357;28;20509;-61